Time;durP1;ratioP1;P1;durP2;ratioP2;P2;SDS_P1;SDS_P2;PMS_P1;PMS_P2;Temp;Humidity;BMP_temperature;BMP_pressure;BME280_temperature;BME280_humidity;BME280_pressure;Samples;Min_cycle;Max_cycle;Signal;HPM_P1;HPM_P2
2021/08/13 00:02:03;;;;;;;11.65;9.13;;;19.90;99.90;;;;;;6297570;28;20031;-86
2021/08/13 00:05:04;;;;;;;16.00;8.52;;;20.10;99.90;;;;;;6279968;28;20027;-91
2021/08/13 00:08:06;;;;;;;12.85;9.02;;;;;;;;;;6276844;28;20055;-85
2021/08/13 00:11:07;;;;;;;12.88;9.73;;;;;;;;;;6304509;28;20463;-85
2021/08/13 00:14:08;;;;;;;13.48;9.40;;;;;;;;;;6292475;28;20028;-87
2021/08/13 00:17:08;;;;;;;13.93;9.20;;;19.70;99.90;;;;;;6283464;28;20034;-86
2021/08/13 00:20:10;;;;;;;12.13;9.35;;;19.70;99.90;;;;;;6276210;28;20382;-86
2021/08/13 00:23:11;;;;;;;11.07;9.45;;;;;;;;;;6250576;28;20029;-86
2021/08/13 00:26:12;;;;;;;11.95;9.20;;;;;;;;;;6296411;28;20017;-87
2021/08/13 00:29:13;;;;;;;10.27;9.07;;;;;;;;;;6297925;28;20016;-85
2021/08/13 00:32:14;;;;;;;11.20;9.57;;;19.60;99.90;;;;;;6314260;28;20382;-89
2021/08/13 00:35:15;;;;;;;15.65;9.88;;;;;;;;;;6299365;28;20035;-87
2021/08/13 00:38:15;;;;;;;12.57;9.98;;;19.60;99.90;;;;;;6292282;28;20102;-84
2021/08/13 00:41:16;;;;;;;11.57;9.32;;;;;;;;;;6277413;28;20024;-85
2021/08/13 00:44:17;;;;;;;14.77;9.02;;;;;;;;;;6293089;28;20027;-87
2021/08/13 00:47:18;;;;;;;12.50;9.80;;;19.60;99.90;;;;;;6276842;28;20031;-87
2021/08/13 00:50:18;;;;;;;10.27;9.20;;;19.60;99.90;;;;;;6272719;28;20442;-89
2021/08/13 00:53:19;;;;;;;12.30;10.02;;;19.40;99.90;;;;;;6258869;28;20591;-87
2021/08/13 00:56:20;;;;;;;11.20;8.63;;;19.60;99.90;;;;;;6249520;28;20046;-87
2021/08/13 00:59:21;;;;;;;13.07;9.80;;;;;;;;;;6273662;28;20037;-85
2021/08/13 01:02:22;;;;;;;13.38;8.98;;;19.50;99.90;;;;;;6279133;28;20121;-85
2021/08/13 01:05:23;;;;;;;13.52;9.45;;;;;;;;;;6266986;28;20530;-85
2021/08/13 01:08:23;;;;;;;9.77;8.75;;;19.50;99.90;;;;;;6268913;28;20059;-84
2021/08/13 01:11:48;;;;;;;11.23;9.05;;;19.60;99.90;;;;;;6292909;28;20120;-87
2021/08/13 01:15:08;;;;;;;12.27;9.65;;;19.20;99.90;;;;;;6295011;28;20025;-87
2021/08/13 01:18:15;;;;;;;16.02;9.50;;;19.40;99.90;;;;;;6292744;28;20033;-87
2021/08/13 01:21:24;;;;;;;11.02;9.10;;;19.30;99.90;;;;;;6279752;28;20047;-85
2021/08/13 01:24:27;;;;;;;11.50;9.15;;;19.40;99.90;;;;;;6312795;28;20454;-87
2021/08/13 01:27:30;;;;;;;10.23;9.13;;;19.40;99.90;;;;;;6286256;28;20696;-88
2021/08/13 01:30:31;;;;;;;12.32;8.85;;;19.40;99.90;;;;;;6293229;28;20028;-86
2021/08/13 01:33:32;;;;;;;12.35;8.90;;;;;;;;;;6291241;28;20858;-88
2021/08/13 01:36:32;;;;;;;10.30;8.75;;;19.30;99.90;;;;;;6272245;28;20128;-85
2021/08/13 01:39:33;;;;;;;8.95;8.05;;;19.40;99.90;;;;;;6274578;28;20044;-85
2021/08/13 01:42:34;;;;;;;10.32;8.70;;;;;;;;;;6269350;28;20050;-85
2021/08/13 01:45:35;;;;;;;9.38;8.13;;;;;;;;;;6263302;28;20036;-85
2021/08/13 01:48:36;;;;;;;13.10;8.03;;;;;;;;;;6290492;28;20025;-87
2021/08/13 01:51:37;;;;;;;11.73;8.93;;;;;;;;;;6291032;28;20067;-89
2021/08/13 01:54:38;;;;;;;12.43;8.15;;;;;;;;;;6273515;28;20439;-88
2021/08/13 01:57:39;;;;;;;9.77;7.75;;;;;;;;;;6291512;28;20024;-86
2021/08/13 02:00:40;;;;;;;10.02;7.30;;;19.40;99.90;;;;;;6268028;28;20048;-86
2021/08/13 02:03:40;;;;;;;11.73;7.68;;;19.70;99.90;;;;;;6278225;28;20032;-86
2021/08/13 02:06:41;;;;;;;7.90;7.00;;;19.50;99.90;;;;;;6274241;28;20450;-85
2021/08/13 02:09:42;;;;;;;13.68;8.18;;;19.50;99.90;;;;;;6296558;28;20067;-85
2021/08/13 02:12:42;;;;;;;8.27;7.32;;;19.70;99.90;;;;;;6275061;28;20044;-88
2021/08/13 02:15:45;;;;;;;10.82;8.20;;;19.30;99.90;;;;;;6279397;28;20024;-87
2021/08/13 02:18:49;;;;;;;10.65;8.02;;;19.20;99.90;;;;;;6294448;28;20466;-90
2021/08/13 02:21:49;;;;;;;11.05;7.82;;;19.20;99.90;;;;;;6272059;28;20075;-86
2021/08/13 02:24:50;;;;;;;10.13;7.72;;;19.20;99.90;;;;;;6299051;28;20477;-86
2021/08/13 02:27:51;;;;;;;10.93;7.80;;;19.10;99.90;;;;;;6278222;28;20027;-86
2021/08/13 02:30:51;;;;;;;11.90;8.57;;;19.30;99.90;;;;;;6276056;28;20387;-85
2021/08/13 02:33:52;;;;;;;11.90;8.32;;;19.00;99.90;;;;;;6298795;28;20032;-86
2021/08/13 02:36:56;;;;;;;11.20;7.75;;;19.00;99.90;;;;;;6316534;28;20386;-86
2021/08/13 02:40:02;;;;;;;10.02;7.88;;;19.00;99.90;;;;;;6279998;28;20036;-85
2021/08/13 02:43:31;;;;;;;10.13;7.13;;;18.90;99.90;;;;;;6275640;28;20119;-88
2021/08/13 02:46:39;;;;;;;11.07;7.63;;;18.90;99.90;;;;;;6284273;28;20428;-91
2021/08/13 02:49:45;;;;;;;11.60;6.88;;;19.00;99.90;;;;;;6267269;28;20344;-87
2021/08/13 02:52:52;;;;;;;8.60;6.78;;;19.00;99.90;;;;;;6272532;28;20032;-88
2021/08/13 02:56:07;;;;;;;10.15;6.85;;;19.60;99.90;;;;;;6272807;28;20407;-91
2021/08/13 02:59:08;;;;;;;9.27;6.95;;;19.00;99.90;;;;;;6271422;28;20060;-88
2021/08/13 03:02:09;;;;;;;12.98;6.93;;;;;;;;;;6273641;28;20054;-88
2021/08/13 03:05:10;;;;;;;11.00;7.07;;;19.20;99.90;;;;;;6273152;28;20020;-85
2021/08/13 03:08:10;;;;;;;9.98;6.20;;;19.00;99.90;;;;;;6276446;28;20036;-87
2021/08/13 03:11:11;;;;;;;13.90;7.45;;;19.00;99.90;;;;;;6280399;28;20511;-84
2021/08/13 03:14:11;;;;;;;14.80;6.72;;;19.00;99.90;;;;;;6281570;28;20032;-88
2021/08/13 03:17:12;;;;;;;9.43;6.40;;;18.90;99.90;;;;;;6283088;28;20069;-86
2021/08/13 03:20:13;;;;;;;10.48;6.13;;;18.80;99.90;;;;;;6284847;28;20058;-84
2021/08/13 03:23:13;;;;;;;13.45;6.32;;;19.00;99.90;;;;;;6285257;28;20035;-87
2021/08/13 03:26:14;;;;;;;8.43;5.70;;;19.00;99.90;;;;;;6276677;28;20025;-87
2021/08/13 03:29:16;;;;;;;9.15;6.78;;;18.90;99.90;;;;;;6268669;28;20458;-90
2021/08/13 03:32:19;;;;;;;8.02;6.50;;;18.80;99.90;;;;;;6277017;28;20032;-85
2021/08/13 03:35:20;;;;;;;7.20;5.75;;;19.00;99.90;;;;;;6281911;28;20443;-85
2021/08/13 03:38:21;;;;;;;10.02;6.47;;;;;;;;;;6294297;28;20063;-89
2021/08/13 03:41:22;;;;;;;9.18;5.85;;;;;;;;;;6295777;28;20083;-85
2021/08/13 03:44:22;;;;;;;7.97;5.07;;;18.80;99.90;;;;;;6273088;28;20413;-91
2021/08/13 03:47:23;;;;;;;7.93;5.43;;;18.80;99.90;;;;;;6271664;28;20038;-86
2021/08/13 03:50:24;;;;;;;8.38;5.63;;;;;;;;;;6297991;28;20020;-90
2021/08/13 03:53:24;;;;;;;6.70;5.00;;;18.90;99.90;;;;;;6298912;28;20505;-87
2021/08/13 03:56:25;;;;;;;7.45;5.30;;;;;;;;;;6295790;28;20060;-87
2021/08/13 03:59:26;;;;;;;11.05;5.90;;;;;;;;;;6272237;28;20073;-85
2021/08/13 04:02:27;;;;;;;10.00;5.72;;;18.80;99.90;;;;;;6278989;28;20021;-87
2021/08/13 04:05:30;;;;;;;6.68;5.47;;;;;;;;;;6269794;28;20020;-84
2021/08/13 04:08:31;;;;;;;11.15;6.20;;;18.90;99.90;;;;;;6278888;28;20024;-87
2021/08/13 04:11:31;;;;;;;12.80;5.55;;;18.80;99.90;;;;;;6271871;28;20097;-85
2021/08/13 04:14:32;;;;;;;9.52;5.65;;;;;;;;;;6280247;28;20024;-84
2021/08/13 04:17:33;;;;;;;11.07;5.45;;;18.80;99.90;;;;;;6317266;28;20514;-87
2021/08/13 04:20:34;;;;;;;15.50;6.03;;;;;;;;;;6282344;28;20020;-85
2021/08/13 04:23:34;;;;;;;6.60;4.88;;;19.00;99.90;;;;;;6293764;28;20012;-90
2021/08/13 04:26:35;;;;;;;9.18;4.78;;;18.90;99.90;;;;;;6301072;28;20347;-86
2021/08/13 04:29:36;;;;;;;10.65;5.57;;;;;;;;;;6272376;28;20074;-85
2021/08/13 04:32:37;;;;;;;7.65;5.00;;;18.90;99.90;;;;;;6291562;28;20043;-85
2021/08/13 04:35:38;;;;;;;10.05;4.47;;;;;;;;;;6277888;28;20028;-88
2021/08/13 04:38:39;;;;;;;8.43;5.15;;;;;;;;;;6256739;28;20036;-85
2021/08/13 04:41:40;;;;;;;7.65;4.85;;;19.00;99.90;;;;;;6256287;28;20033;-85
2021/08/13 04:44:41;;;;;;;7.85;5.47;;;;;;;;;;6264813;28;20079;-89
2021/08/13 04:47:41;;;;;;;5.70;4.38;;;19.00;99.90;;;;;;6276860;28;20025;-86
2021/08/13 04:50:42;;;;;;;11.80;4.93;;;19.10;99.90;;;;;;6253107;28;20033;-86
2021/08/13 04:53:43;;;;;;;7.18;4.47;;;19.20;99.90;;;;;;6266435;28;20126;-85
2021/08/13 04:56:43;;;;;;;11.80;5.00;;;19.30;99.90;;;;;;6246779;28;20036;-86
2021/08/13 04:59:44;;;;;;;9.02;5.13;;;19.70;99.90;;;;;;6245073;28;20016;-84
2021/08/13 05:02:44;;;;;;;9.63;4.80;;;19.40;99.90;;;;;;6244817;28;20033;-85
2021/08/13 05:05:45;;;;;;;8.38;4.47;;;19.40;99.90;;;;;;6254407;28;20032;-86
2021/08/13 05:08:46;;;;;;;6.85;4.57;;;19.50;99.90;;;;;;6249884;28;20106;-89
2021/08/13 05:11:46;;;;;;;8.93;4.97;;;19.60;99.90;;;;;;6238340;28;20390;-86
2021/08/13 05:14:47;;;;;;;6.40;4.95;;;19.80;99.90;;;;;;6256202;28;20116;-89
2021/08/13 05:17:47;;;;;;;10.63;5.03;;;19.70;99.90;;;;;;6247989;28;20370;-85
2021/08/13 05:20:48;;;;;;;9.77;4.88;;;19.80;99.90;;;;;;6247483;28;20467;-89
2021/08/13 05:23:49;;;;;;;9.77;4.97;;;;;;;;;;6269759;28;20071;-86
2021/08/13 05:26:50;;;;;;;10.23;4.72;;;20.00;99.90;;;;;;6252020;28;20066;-84
2021/08/13 05:29:51;;;;;;;10.45;5.18;;;;;;;;;;6246664;28;20037;-86
2021/08/13 05:32:52;;;;;;;6.20;4.45;;;20.30;99.90;;;;;;6287356;28;20043;-84
2021/08/13 05:35:52;;;;;;;7.63;4.77;;;20.20;99.90;;;;;;6244403;28;20062;-82
2021/08/13 05:38:53;;;;;;;6.35;4.35;;;20.40;99.90;;;;;;6249041;28;20049;-88
2021/08/13 05:41:54;;;;;;;7.30;4.55;;;20.60;99.90;;;;;;6219636;28;20020;-85
2021/08/13 05:44:54;;;;;;;7.32;4.15;;;20.80;99.90;;;;;;6246001;28;20032;-86
2021/08/13 05:47:57;;;;;;;7.65;4.53;;;20.90;99.90;;;;;;6249550;28;20351;-90
2021/08/13 05:51:01;;;;;;;6.45;4.43;;;21.00;99.90;;;;;;6264567;28;20417;-90
2021/08/13 05:54:02;;;;;;;6.22;4.05;;;;;;;;;;6247001;28;20044;-87
2021/08/13 05:57:03;;;;;;;7.03;4.50;;;22.00;99.90;;;;;;6262630;28;20422;-84
2021/08/13 06:00:04;;;;;;;10.40;4.53;;;22.10;99.90;;;;;;6266444;28;20072;-84
2021/08/13 06:03:05;;;;;;;7.13;4.18;;;22.00;99.90;;;;;;6262448;28;20386;-88
2021/08/13 06:06:06;;;;;;;6.47;4.20;;;22.50;99.90;;;;;;6249423;28;20029;-89
2021/08/13 06:09:07;;;;;;;7.80;4.20;;;22.90;99.90;;;;;;6268414;28;20037;-87
2021/08/13 06:12:07;;;;;;;7.78;4.20;;;23.30;99.90;;;;;;6252545;28;20045;-85
2021/08/13 06:15:08;;;;;;;7.70;4.32;;;23.70;99.90;;;;;;6243193;28;20025;-85
2021/08/13 06:18:09;;;;;;;6.43;4.40;;;24.50;99.90;;;;;;6261285;28;20027;-87
2021/08/13 06:21:10;;;;;;;7.00;4.07;;;24.60;99.90;;;;;;6264883;28;20259;-88
2021/08/13 06:24:10;;;;;;;6.43;4.05;;;24.60;99.90;;;;;;6247343;28;20036;-90
2021/08/13 06:27:12;;;;;;;8.00;4.63;;;;;;;;;;6260599;28;20514;-89
2021/08/13 06:30:14;;;;;;;6.50;4.30;;;24.60;98.70;;;;;;6250116;28;20508;-89
2021/08/13 06:33:14;;;;;;;7.03;3.92;;;24.40;99.60;;;;;;6243064;28;20077;-87
2021/08/13 06:36:15;;;;;;;5.67;4.10;;;;;;;;;;6266750;28;20475;-88
2021/08/13 06:39:31;;;;;;;7.57;4.70;;;24.60;99.90;;;;;;6243579;28;20025;-89
2021/08/13 06:42:34;;;;;;;8.23;4.38;;;24.60;99.90;;;;;;6247213;28;20033;-90
2021/08/13 06:45:36;;;;;;;11.52;4.65;;;;;;;;;;6248490;28;20078;-90
2021/08/13 06:49:01;;;;;;;9.07;4.93;;;24.60;99.90;;;;;;6250616;28;20032;-91
2021/08/13 06:52:11;;;;;;;7.18;4.95;;;24.50;99.90;;;;;;6246986;28;20033;-91
2021/08/13 06:55:25;;;;;;;7.38;4.70;;;24.30;99.90;;;;;;6246307;28;20049;-93
2021/08/13 06:58:29;;;;;;;9.48;5.60;;;24.30;99.90;;;;;;6244370;28;20036;-89
2021/08/13 07:01:36;;;;;;;6.40;4.75;;;24.40;99.90;;;;;;6228174;28;20386;-88
2021/08/13 07:04:38;;;;;;;10.98;5.43;;;25.10;99.90;;;;;;6226194;28;20031;-87
2021/08/13 07:07:38;;;;;;;8.02;4.95;;;24.40;99.90;;;;;;6248923;28;20101;-87
2021/08/13 07:10:39;;;;;;;6.20;4.30;;;24.60;99.90;;;;;;6248362;28;20042;-83
2021/08/13 07:13:45;;;;;;;9.90;5.17;;;25.20;99.90;;;;;;6244450;28;20072;-86
2021/08/13 07:16:55;;;;;;;6.55;4.75;;;25.80;99.90;;;;;;6243398;28;20451;-89
2021/08/13 07:20:08;;;;;;;8.68;5.15;;;26.60;99.90;;;;;;6233490;28;20481;-88
2021/08/13 07:23:09;;;;;;;9.80;5.07;;;26.70;99.90;;;;;;6245100;28;20044;-84
2021/08/13 07:26:10;;;;;;;6.60;4.53;;;29.00;97.20;;;;;;6249806;28;20025;-83
2021/08/13 07:29:10;;;;;;;12.57;5.03;;;28.60;97.00;;;;;;6243497;28;20430;-83
2021/08/13 07:32:11;;;;;;;8.23;4.77;;;29.30;96.20;;;;;;6258377;28;20041;-85
2021/08/13 07:35:12;;;;;;;7.60;4.50;;;29.70;95.50;;;;;;6224909;28;20021;-84
2021/08/13 07:38:12;;;;;;;10.90;5.25;;;30.00;94.40;;;;;;6282184;28;20059;-84
2021/08/13 07:41:13;;;;;;;9.17;4.70;;;29.70;94.00;;;;;;6278730;28;20020;-85
2021/08/13 07:44:14;;;;;;;8.53;4.37;;;29.30;94.80;;;;;;6265722;28;20131;-84
2021/08/13 07:47:14;;;;;;;7.83;4.57;;;28.60;95.60;;;;;;6270641;28;20046;-86
2021/08/13 07:50:15;;;;;;;9.80;4.87;;;28.30;96.00;;;;;;6282758;28;20274;-84
2021/08/13 07:53:19;;;;;;;10.00;4.53;;;28.70;95.70;;;;;;6262295;28;20039;-87
2021/08/13 07:56:20;;;;;;;6.25;4.70;;;29.00;93.70;;;;;;6268606;28;20447;-88
2021/08/13 07:59:20;;;;;;;12.13;4.50;;;29.50;93.80;;;;;;6277846;28;20055;-88
2021/08/13 08:02:21;;;;;;;9.27;4.65;;;29.30;92.30;;;;;;6300679;28;20035;-86
2021/08/13 08:05:22;;;;;;;7.87;4.63;;;29.50;92.70;;;;;;6262227;28;20039;-85
2021/08/13 08:08:22;;;;;;;9.57;5.73;;;29.50;92.90;;;;;;6288189;28;20032;-86
2021/08/13 08:11:23;;;;;;;11.07;5.03;;;29.70;93.10;;;;;;6270581;28;20029;-87
2021/08/13 08:14:24;;;;;;;7.97;4.68;;;29.80;92.50;;;;;;6294173;28;20028;-86
2021/08/13 08:17:24;;;;;;;9.30;4.77;;;29.50;92.10;;;;;;6290016;28;20040;-86
2021/08/13 08:20:25;;;;;;;8.53;4.97;;;29.20;92.10;;;;;;6273998;28;20024;-86
2021/08/13 08:23:26;;;;;;;8.53;4.57;;;28.80;93.20;;;;;;6272045;28;20435;-85
2021/08/13 08:26:26;;;;;;;9.57;5.00;;;28.50;93.40;;;;;;6278257;28;20024;-85
2021/08/13 08:29:27;;;;;;;7.67;4.70;;;28.20;94.20;;;;;;6268801;28;20604;-85
2021/08/13 08:32:28;;;;;;;9.00;4.47;;;;;;;;;;6268276;28;20603;-86
2021/08/13 08:35:29;;;;;;;9.02;4.88;;;28.10;94.50;;;;;;6265472;28;20330;-84
2021/08/13 08:38:29;;;;;;;6.73;4.57;;;28.20;95.50;;;;;;6251726;28;20048;-82
2021/08/13 08:41:30;;;;;;;9.70;4.27;;;28.80;95.00;;;;;;6244421;28;20032;-88
2021/08/13 08:44:31;;;;;;;9.40;4.30;;;;;;;;;;6265467;28;20032;-88
2021/08/13 08:47:32;;;;;;;8.05;5.10;;;28.30;99.90;;;;;;6240150;28;20025;-88
2021/08/13 08:50:34;;;;;;;9.10;5.13;;;28.60;98.60;;;;;;6239525;28;20033;-87
2021/08/13 08:53:49;;;;;;;10.73;4.47;;;28.50;99.90;;;;;;6248769;28;20110;-89
2021/08/13 08:56:51;;;;;;;9.05;4.30;;;28.30;99.90;;;;;;6274072;28;20028;-89
2021/08/13 08:59:53;;;;;;;;;;;28.40;93.50;;;;;;6242170;28;20478;-85
2021/08/13 09:02:54;;;;;;;7.95;4.28;;;28.40;92.60;;;;;;6247668;28;19901;-85
2021/08/13 09:10:40;;;;;;;9.52;5.40;;;31.00;93.80;;;;;;6231498;28;20097;-90
2021/08/13 09:18:09;;;;;;;9.32;4.47;;;28.80;97.80;;;;;;6231823;28;20030;-91
2021/08/13 09:21:53;;;;;;;8.70;4.80;;;29.40;93.20;;;;;;6212924;28;20116;-88
2021/08/13 09:25:21;;;;;;;11.05;4.43;;;32.40;92.00;;;;;;6200736;28;20467;-88
2021/08/13 09:28:46;;;;;;;9.63;4.80;;;30.00;93.90;;;;;;6216603;28;20049;-88
2021/08/13 09:31:51;;;;;;;8.68;5.38;;;30.20;88.70;;;;;;6214416;28;20672;-88
2021/08/13 09:34:51;;;;;;;10.68;5.28;;;30.30;88.10;;;;;;6203688;28;20037;-89
2021/08/13 09:37:52;;;;;;;9.43;5.27;;;30.40;87.90;;;;;;6276909;28;20064;-89
2021/08/13 09:41:21;;;;;;;9.57;5.10;;;30.70;86.20;;;;;;6247499;28;20031;-89
2021/08/13 09:44:35;;;;;;;9.70;5.22;;;31.90;87.50;;;;;;6247644;28;20271;-90
2021/08/13 09:47:46;;;;;;;11.57;5.18;;;31.40;86.40;;;;;;6240058;28;20834;-89
2021/08/13 09:51:25;;;;;;;7.35;4.95;;;32.00;86.10;;;;;;6266650;28;20339;-91
2021/08/13 09:54:30;;;;;;;9.77;5.53;;;35.80;82.10;;;;;;6280381;28;20095;-91
2021/08/13 09:57:44;;;;;;;12.77;5.70;;;32.80;81.80;;;;;;6260486;28;20382;-89
2021/08/13 10:00:51;;;;;;;10.55;6.32;;;32.50;81.20;;;;;;6267393;28;20060;-87
2021/08/13 10:03:52;;;;;;;10.32;5.95;;;32.60;78.50;;;;;;6255987;28;20458;-86
2021/08/13 10:06:54;;;;;;;8.95;6.38;;;33.00;78.50;;;;;;6247697;28;20048;-88
2021/08/13 10:10:06;;;;;;;10.05;6.13;;;33.30;79.00;;;;;;6262132;28;20123;-87
2021/08/13 10:13:08;;;;;;;8.65;5.80;;;33.60;75.30;;;;;;6280453;28;20055;-88
2021/08/13 10:16:09;;;;;;;12.80;6.88;;;;;;;;;;6233914;28;20025;-90
2021/08/13 10:19:10;;;;;;;10.27;5.72;;;34.90;75.90;;;;;;6244061;28;20025;-86
2021/08/13 10:29:21;;;;;;;10.60;6.70;;;35.10;91.00;;;;;;5906094;26;20088;-87
2021/08/13 10:32:22;;;;;;;10.93;6.75;;;35.10;73.90;;;;;;6269795;28;20082;-88
2021/08/13 10:35:27;;;;;;;10.88;6.93;;;35.10;75.70;;;;;;6269431;28;20372;-87
2021/08/13 10:38:48;;;;;;;12.38;7.30;;;35.20;73.10;;;;;;6270346;28;20036;-86
2021/08/13 10:41:59;;;;;;;9.82;6.80;;;33.90;73.60;;;;;;6306699;28;20028;-87
2021/08/13 10:45:07;;;;;;;8.48;6.93;;;35.80;74.50;;;;;;6286382;28;20485;-87
2021/08/13 10:48:22;;;;;;;8.55;7.05;;;35.50;71.10;;;;;;6286210;28;20036;-86
2021/08/13 10:51:29;;;;;;;8.27;7.43;;;35.40;71.80;;;;;;6287281;28;20141;-88
2021/08/13 10:54:43;;;;;;;10.43;7.65;;;34.90;72.70;;;;;;6269357;28;20462;-87
2021/08/13 10:57:50;;;;;;;10.95;7.72;;;34.30;71.30;;;;;;6286831;28;20158;-89
2021/08/13 11:01:07;;;;;;;9.18;7.18;;;34.00;93.60;;;;;;6303093;28;20024;-86
2021/08/13 11:04:11;;;;;;;10.50;7.40;;;34.40;74.20;;;;;;6286307;28;20028;-87
2021/08/13 11:07:12;;;;;;;14.73;8.23;;;;;;;;;;6287791;28;20373;-87
2021/08/13 11:10:53;;;;;;;12.30;7.57;;;34.00;78.70;;;;;;6303002;28;20031;-88
2021/08/13 11:13:54;;;;;;;11.85;7.88;;;;;;;;;;6285938;28;20535;-86
2021/08/13 11:16:55;;;;;;;11.10;7.65;;;33.40;73.30;;;;;;6302507;28;20024;-85
2021/08/13 11:19:57;;;;;;;13.60;7.30;;;32.80;75.00;;;;;;6277316;28;20586;-87
2021/08/13 11:23:02;;;;;;;9.15;7.38;;;32.30;76.60;;;;;;6286570;28;20032;-87
2021/08/13 11:26:03;;;;;;;10.82;8.00;;;;;;;;;;6286275;28;20043;-87
2021/08/13 11:29:30;;;;;;;18.67;8.13;;;31.80;88.50;;;;;;6325621;28;20065;-86
2021/08/13 11:32:32;;;;;;;9.68;7.50;;;33.40;81.50;;;;;;6343979;28;20051;-87
2021/08/13 11:35:37;;;;;;;11.73;8.18;;;32.90;95.90;;;;;;6326933;28;20020;-89
2021/08/13 11:38:44;;;;;;;9.68;7.80;;;32.80;77.60;;;;;;6308136;28;20039;-87
2021/08/13 11:41:45;;;;;;;12.15;7.78;;;;;;;;;;6327199;28;20028;-88
2021/08/13 11:44:48;;;;;;;14.77;8.00;;;33.40;79.50;;;;;;6327327;28;20027;-88
2021/08/13 11:47:49;;;;;;;9.00;7.50;;;;;;;;;;6328684;28;20496;-89
2021/08/13 11:50:50;;;;;;;11.95;7.72;;;;;;;;;;6327525;28;20024;-88
2021/08/13 11:53:51;;;;;;;9.38;7.90;;;;;;;;;;6310634;28;20164;-88
2021/08/13 11:56:52;;;;;;;10.10;7.68;;;33.90;79.10;;;;;;6327437;28;20026;-89
2021/08/13 11:59:53;;;;;;;11.93;7.85;;;;;;;;;;6326929;28;20027;-89
2021/08/13 12:02:57;;;;;;;10.73;7.50;;;33.80;75.50;;;;;;6326268;28;20032;-87
2021/08/13 12:05:58;;;;;;;12.77;7.30;;;;;;;;;;6326862;28;20035;-89
2021/08/13 12:08:59;;;;;;;11.02;7.90;;;;;;;;;;6327597;28;20096;-88
2021/08/13 12:12:03;;;;;;;10.45;7.65;;;33.80;73.80;;;;;;6326720;28;20541;-89
2021/08/13 12:15:04;;;;;;;9.15;7.80;;;33.80;76.40;;;;;;6310219;28;20038;-89
2021/08/13 12:18:05;;;;;;;;;;;33.90;77.80;;;;;;6327142;28;20055;-88
2021/08/13 12:21:06;;;;;;;14.50;8.43;;;34.10;75.60;;;;;;6309426;28;19911;-88
2021/08/13 12:24:07;;;;;;;7.82;7.03;;;;;;;;;;6326331;28;20412;-90
2021/08/13 12:27:10;;;;;;;11.35;8.15;;;34.20;70.00;;;;;;6326570;28;20072;-89
2021/08/13 12:30:34;;;;;;;7.95;7.15;;;34.10;75.40;;;;;;6326071;28;20396;-88
2021/08/13 12:33:35;;;;;;;12.07;8.30;;;;;;;;;;6318179;28;20082;-89
2021/08/13 12:36:36;;;;;;;8.80;7.82;;;34.20;74.60;;;;;;6326719;28;20051;-88
2021/08/13 12:39:42;;;;;;;9.38;8.05;;;33.30;79.40;;;;;;6293338;28;20070;-88
2021/08/13 12:42:44;;;;;;;10.05;8.90;;;32.90;74.10;;;;;;6309266;28;20059;-89
2021/08/13 12:45:45;;;;;;;9.25;8.35;;;;;;;;;;6309135;28;20035;-88
2021/08/13 12:48:46;;;;;;;;;;;32.60;76.40;;;;;;6327198;28;20065;-88
2021/08/13 12:51:47;;;;;;;12.47;7.90;;;32.80;84.70;;;;;;6309059;28;19912;-89
2021/08/13 12:54:49;;;;;;;10.77;8.05;;;32.50;77.00;;;;;;6326104;28;20031;-88
2021/08/13 12:57:50;;;;;;;12.77;8.90;;;;;;;;;;6325632;28;20044;-88
2021/08/13 13:00:51;;;;;;;11.20;8.15;;;;;;;;;;6326012;28;20136;-89
2021/08/13 13:04:11;;;;;;;15.27;8.68;;;32.30;76.30;;;;;;6325780;28;20553;-88
2021/08/13 13:07:14;;;;;;;10.40;8.40;;;31.90;78.50;;;;;;6325907;28;20019;-88
2021/08/13 13:10:15;;;;;;;10.38;8.27;;;32.10;81.30;;;;;;6308650;28;20027;-87
2021/08/13 13:13:16;;;;;;;12.45;8.23;;;;;;;;;;6325603;28;20096;-87
2021/08/13 13:16:17;;;;;;;9.20;7.53;;;32.40;77.70;;;;;;6325512;28;20027;-88
2021/08/13 13:19:19;;;;;;;12.52;8.15;;;34.60;82.60;;;;;;6325854;28;20036;-87
2021/08/13 13:22:21;;;;;;;13.25;8.52;;;32.60;80.00;;;;;;6325667;28;20038;-87
2021/08/13 13:25:22;;;;;;;19.23;8.90;;;;;;;;;;6325783;28;20094;-88
2021/08/13 13:28:30;;;;;;;11.55;8.55;;;32.60;84.10;;;;;;6325234;28;20028;-89
2021/08/13 13:31:39;;;;;;;10.35;8.40;;;32.70;79.60;;;;;;6325519;28;20051;-88
2021/08/13 13:34:39;;;;;;;11.25;8.00;;;32.70;80.70;;;;;;6324998;28;20047;-88
2021/08/13 13:37:51;;;;;;;12.48;7.72;;;32.50;78.10;;;;;;6324741;28;20024;-88
2021/08/13 13:40:52;;;;;;;14.23;8.55;;;;;;;;;;6324272;28;20457;-87
2021/08/13 13:43:56;;;;;;;9.65;8.05;;;;;;;;;;6324711;28;20687;-87
2021/08/13 13:46:57;;;;;;;9.50;8.13;;;;;;;;;;6325165;28;20065;-89
2021/08/13 13:49:58;;;;;;;14.10;8.77;;;;;;;;;;6325168;28;20024;-87
2021/08/13 13:52:58;;;;;;;12.23;7.55;;;32.40;80.00;;;;;;6325480;28;20445;-88
2021/08/13 13:55:59;;;;;;;10.50;8.63;;;32.30;84.50;;;;;;6324746;28;20035;-87
2021/08/13 13:59:00;;;;;;;12.75;9.30;;;32.10;81.50;;;;;;6325225;28;20028;-87
2021/08/13 14:02:01;;;;;;;12.18;8.93;;;32.10;80.90;;;;;;6307944;28;20085;-90
2021/08/13 14:05:02;;;;;;;;;;;32.00;80.80;;;;;;6308172;28;20032;-87
2021/08/13 14:08:03;;;;;;;10.30;8.90;;;32.00;81.50;;;;;;6308396;28;19907;-89
2021/08/13 14:11:03;;;;;;;15.75;8.45;;;32.20;82.60;;;;;;6311720;28;20061;-88
2021/08/13 14:14:04;;;;;;;10.30;8.38;;;32.30;80.00;;;;;;6313348;28;20039;-87
2021/08/13 14:17:05;;;;;;;15.18;8.77;;;32.50;80.40;;;;;;6312463;28;20517;-90
2021/08/13 14:20:07;;;;;;;11.98;8.95;;;32.50;77.90;;;;;;6312469;28;20028;-84
2021/08/13 14:23:07;;;;;;;12.07;8.70;;;32.50;78.50;;;;;;6328324;28;20532;-84
2021/08/13 14:26:08;;;;;;;9.40;8.15;;;32.40;79.20;;;;;;6328831;28;20092;-84
2021/08/13 14:29:08;;;;;;;12.88;10.10;;;32.10;80.40;;;;;;6310885;28;20043;-85
2021/08/13 14:32:09;;;;;;;11.57;8.45;;;31.90;79.30;;;;;;6329290;28;20028;-84
2021/08/13 14:35:10;;;;;;;17.35;9.13;;;30.80;79.30;;;;;;6328412;28;20043;-84
2021/08/13 14:38:11;;;;;;;10.57;8.60;;;31.40;82.80;;;;;;6327545;28;20068;-83
2021/08/13 14:41:12;;;;;;;12.93;8.70;;;31.30;82.10;;;;;;6304418;28;20039;-85
2021/08/13 14:44:12;;;;;;;11.05;9.35;;;31.20;82.80;;;;;;6327608;28;20031;-83
2021/08/13 14:47:13;;;;;;;13.18;8.93;;;31.30;83.70;;;;;;6328019;28;20036;-83
2021/08/13 14:50:13;;;;;;;8.98;8.07;;;31.20;77.80;;;;;;6310993;28;20031;-85
2021/08/13 14:53:16;;;;;;;11.98;9.30;;;31.20;77.80;;;;;;6328167;28;20050;-84
2021/08/13 14:56:16;;;;;;;10.65;8.57;;;31.30;77.90;;;;;;6328520;28;20035;-83
2021/08/13 14:59:17;;;;;;;11.43;8.25;;;31.30;77.70;;;;;;6328416;28;20055;-84
2021/08/13 15:02:20;;;;;;;10.13;8.43;;;31.20;78.10;;;;;;6328441;28;20452;-84
2021/08/13 15:05:23;;;;;;;12.07;8.80;;;31.20;79.00;;;;;;6327801;28;20031;-83
2021/08/13 15:08:27;;;;;;;10.32;8.52;;;31.20;77.90;;;;;;6328239;28;20031;-84
2021/08/13 15:11:27;;;;;;;14.98;8.60;;;32.90;80.10;;;;;;6311344;28;20039;-84
2021/08/13 15:14:28;;;;;;;13.43;8.47;;;31.10;78.00;;;;;;6310570;28;20047;-85
2021/08/13 15:17:28;;;;;;;11.10;7.85;;;31.00;77.90;;;;;;6327383;28;20042;-85
2021/08/13 15:20:29;;;;;;;11.63;8.33;;;30.90;76.90;;;;;;6326369;28;20131;-85
2021/08/13 15:23:30;;;;;;;10.50;8.38;;;30.80;78.40;;;;;;6310004;28;20020;-84
2021/08/13 15:26:30;;;;;;;10.33;8.00;;;30.80;93.10;;;;;;6327453;28;20036;-85
2021/08/13 15:29:31;;;;;;;11.30;8.13;;;30.80;81.00;;;;;;6326688;28;20067;-84
2021/08/13 15:32:31;;;;;;;10.23;8.63;;;30.90;81.10;;;;;;6326683;28;20328;-83
2021/08/13 15:35:32;;;;;;;9.30;8.20;;;30.90;78.40;;;;;;6326818;28;20036;-83
2021/08/13 15:38:33;;;;;;;14.33;8.27;;;30.80;78.20;;;;;;6327041;28;20039;-85
2021/08/13 15:41:33;;;;;;;9.93;7.80;;;30.80;85.80;;;;;;6310078;28;20272;-83
2021/08/13 15:44:34;;;;;;;10.60;8.00;;;30.80;87.70;;;;;;6310270;28;20407;-84
2021/08/13 15:47:34;;;;;;;10.03;8.27;;;30.90;96.50;;;;;;6345393;28;20059;-84
2021/08/13 15:50:35;;;;;;;10.07;8.27;;;30.80;88.80;;;;;;6309604;28;20265;-85
2021/08/13 15:53:36;;;;;;;11.05;8.20;;;30.70;87.60;;;;;;6326998;28;20119;-84
2021/08/13 15:56:37;;;;;;;14.25;8.07;;;30.60;90.10;;;;;;6326443;28;20041;-83
2021/08/13 15:59:38;;;;;;;14.60;9.23;;;30.30;82.20;;;;;;6326883;28;20097;-83
2021/08/13 16:02:39;;;;;;;9.65;8.63;;;30.20;92.00;;;;;;6326448;28;20285;-84
2021/08/13 16:05:40;;;;;;;;;;;30.00;87.00;;;;;;6326766;28;20032;-82
2021/08/13 16:08:40;;;;;;;9.97;8.80;;;30.00;85.20;;;;;;6309505;28;20383;-87
2021/08/13 16:11:41;;;;;;;10.07;8.33;;;29.90;84.60;;;;;;6326237;28;20168;-84
2021/08/13 16:14:42;;;;;;;11.00;8.40;;;;;;;;;;6313584;28;20273;-84
2021/08/13 16:17:43;;;;;;;13.65;8.25;;;29.80;84.60;;;;;;6325926;28;20023;-85
2021/08/13 16:20:43;;;;;;;9.32;8.30;;;29.80;85.50;;;;;;6326582;28;20469;-85
2021/08/13 16:23:44;;;;;;;10.30;8.07;;;29.80;86.50;;;;;;6326189;28;20031;-84
2021/08/13 16:26:45;;;;;;;10.50;8.60;;;29.80;85.50;;;;;;6309260;28;20370;-84
2021/08/13 16:29:45;;;;;;;14.70;8.55;;;29.80;85.40;;;;;;6300585;28;20389;-85